sensor_id;sensor_type;location;lat;lon;timestamp;pressure;altitude;pressure_sealevel;temperature;humidity
71964;BME280;59834;52.124;5.422;2022-12-07T01:12:51;101851.81;;;2.44;100.00
71964;BME280;59834;52.124;5.422;2022-12-07T01:15:18;101853.53;;;2.45;100.00
71964;BME280;59834;52.124;5.422;2022-12-07T01:17:45;101850.94;;;2.45;100.00
71964;BME280;59834;52.124;5.422;2022-12-07T01:20:12;101854.41;;;2.45;100.00
71964;BME280;59834;52.124;5.422;2022-12-07T01:22:40;101850.94;;;2.45;100.00
71964;BME280;59834;52.124;5.422;2022-12-07T01:25:08;101851.81;;;2.44;100.00
71964;BME280;59834;52.124;5.422;2022-12-07T01:27:35;101859.53;;;2.47;100.00
71964;BME280;59834;52.124;5.422;2022-12-07T01:30:05;101858.69;;;2.45;100.00
71964;BME280;59834;52.124;5.422;2022-12-07T01:32:35;101862.19;;;2.41;100.00
71964;BME280;59834;52.124;5.422;2022-12-07T01:35:02;101857.06;;;2.39;100.00
71964;BME280;59834;52.124;5.422;2022-12-07T01:37:36;101860.53;;;2.36;100.00
71964;BME280;59834;52.124;5.422;2022-12-07T01:40:05;101863.16;;;2.33;100.00
71964;BME280;59834;52.124;5.422;2022-12-07T01:42:33;101859.75;;;2.31;100.00
71964;BME280;59834;52.124;5.422;2022-12-07T01:47:53;101864.06;;;2.28;100.00
71964;BME280;59834;52.124;5.422;2022-12-07T01:50:24;101854.66;;;2.25;100.00
71964;BME280;59834;52.124;5.422;2022-12-07T01:52:54;101863.25;;;2.24;100.00
71964;BME280;59834;52.124;5.422;2022-12-07T01:55:22;101865.00;;;2.24;100.00
71964;BME280;59834;52.124;5.422;2022-12-07T01:57:51;101866.72;;;2.23;100.00
71964;BME280;59834;52.124;5.422;2022-12-07T02:00:20;101862.44;;;2.22;100.00
71964;BME280;59834;52.124;5.422;2022-12-07T02:02:54;101852.13;;;2.22;100.00
71964;BME280;59834;52.124;5.422;2022-12-07T02:05:24;101865.88;;;2.21;100.00
71964;BME280;59834;52.124;5.422;2022-12-07T02:07:53;101866.72;;;2.23;100.00
71964;BME280;59834;52.124;5.422;2022-12-07T02:10:26;101855.50;;;2.24;100.00
71964;BME280;59834;52.124;5.422;2022-12-07T02:13:24;101860.72;;;2.21;100.00
71964;BME280;59834;52.124;5.422;2022-12-07T02:21:45;101852.94;;;2.26;100.00
71964;BME280;59834;52.124;5.422;2022-12-07T02:29:50;101850.25;;;2.35;100.00
71964;BME280;59834;52.124;5.422;2022-12-07T02:32:27;101854.47;;;2.39;100.00
71964;BME280;59834;52.124;5.422;2022-12-07T02:35:07;101851.81;;;2.44;100.00
71964;BME280;59834;52.124;5.422;2022-12-07T02:37:42;101851.78;;;2.47;100.00
71964;BME280;59834;52.124;5.422;2022-12-07T02:40:18;101849.19;;;2.48;100.00
71964;BME280;59834;52.124;5.422;2022-12-07T02:42:55;101848.34;;;2.46;100.00
71964;BME280;59834;52.124;5.422;2022-12-07T02:45:25;101841.44;;;2.48;100.00
71964;BME280;59834;52.124;5.422;2022-12-07T02:47:56;101844.84;;;2.52;100.00
71964;BME280;59834;52.124;5.422;2022-12-07T02:50:25;101843.06;;;2.54;100.00
71964;BME280;59834;52.124;5.422;2022-12-07T02:52:53;101841.31;;;2.56;100.00
71964;BME280;59834;52.124;5.422;2022-12-07T02:55:24;101845.59;;;2.58;100.00
71964;BME280;59834;52.124;5.422;2022-12-07T03:00:27;101839.50;;;2.61;100.00
71964;BME280;59834;52.124;5.422;2022-12-07T03:02:59;101838.66;;;2.60;100.00
71964;BME280;59834;52.124;5.422;2022-12-07T03:10:58;101857.66;;;2.58;100.00
71964;BME280;59834;52.124;5.422;2022-12-07T03:19:27;101837.81;;;2.60;100.00
71964;BME280;59834;52.124;5.422;2022-12-07T03:22:03;101825.78;;;2.57;100.00
71964;BME280;59834;52.124;5.422;2022-12-07T03:24:54;101840.44;;;2.57;100.00
71964;BME280;59834;52.124;5.422;2022-12-07T03:27:25;101840.44;;;2.57;100.00
71964;BME280;59834;52.124;5.422;2022-12-07T03:30:02;101841.38;;;2.53;100.00
71964;BME280;59834;52.124;5.422;2022-12-07T03:32:38;101836.22;;;2.51;100.00
71964;BME280;59834;52.124;5.422;2022-12-07T03:35:12;101833.63;;;2.53;100.00
71964;BME280;59834;52.124;5.422;2022-12-07T03:40:35;101828.44;;;2.53;100.00
71964;BME280;59834;52.124;5.422;2022-12-07T03:43:04;101830.22;;;2.48;100.00
71964;BME280;59834;52.124;5.422;2022-12-07T03:45:39;101822.59;;;2.40;100.00
71964;BME280;59834;52.124;5.422;2022-12-07T03:50:52;101827.88;;;2.32;100.00
71964;BME280;59834;52.124;5.422;2022-12-07T03:53:30;101823.56;;;2.33;100.00
71964;BME280;59834;52.124;5.422;2022-12-07T03:56:04;101825.25;;;2.35;100.00
71964;BME280;59834;52.124;5.422;2022-12-07T03:58:33;101827.81;;;2.37;100.00
71964;BME280;59834;52.124;5.422;2022-12-07T04:01:00;101832.16;;;2.35;100.00
71964;BME280;59834;52.124;5.422;2022-12-07T04:03:26;101828.75;;;2.31;100.00
71964;BME280;59834;52.124;5.422;2022-12-07T04:05:53;101825.28;;;2.31;100.00
71964;BME280;59834;52.124;5.422;2022-12-07T04:08:20;101819.28;;;2.32;100.00
71964;BME280;59834;52.124;5.422;2022-12-07T04:10:46;101824.41;;;2.33;100.00
71964;BME280;59834;52.124;5.422;2022-12-07T04:13:13;101819.19;;;2.36;100.00
71964;BME280;59834;52.124;5.422;2022-12-07T04:15:40;101812.28;;;2.39;100.00
71964;BME280;59834;52.124;5.422;2022-12-07T04:18:06;101813.09;;;2.41;100.00
71964;BME280;59834;52.124;5.422;2022-12-07T04:20:32;101810.56;;;2.39;100.00
71964;BME280;59834;52.124;5.422;2022-12-07T04:22:59;101815.72;;;2.39;100.00
71964;BME280;59834;52.124;5.422;2022-12-07T04:25:26;101812.28;;;2.39;100.00
71964;BME280;59834;52.124;5.422;2022-12-07T04:27:52;101810.56;;;2.38;100.00
71964;BME280;59834;52.124;5.422;2022-12-07T04:30:20;101815.72;;;2.38;100.00
71964;BME280;59834;52.124;5.422;2022-12-07T04:32:46;101816.66;;;2.33;100.00
71964;BME280;59834;52.124;5.422;2022-12-07T04:35:13;101815.84;;;2.31;100.00
71964;BME280;59834;52.124;5.422;2022-12-07T04:37:39;101819.28;;;2.30;100.00
71964;BME280;59834;52.124;5.422;2022-12-07T04:40:09;101814.09;;;2.30;100.00
71964;BME280;59834;52.124;5.422;2022-12-07T04:42:37;101804.63;;;2.31;100.00
71964;BME280;59834;52.124;5.422;2022-12-07T04:45:05;101808.91;;;2.33;100.00
71964;BME280;59834;52.124;5.422;2022-12-07T04:47:33;101820.03;;;2.37;100.00
71964;BME280;59834;52.124;5.422;2022-12-07T04:50:00;101815.72;;;2.38;100.00
71964;BME280;59834;52.124;5.422;2022-12-07T04:52:28;101814.00;;;2.38;100.00
71964;BME280;59834;52.124;5.422;2022-12-07T04:54:54;101809.72;;;2.39;100.00
71964;BME280;59834;52.124;5.422;2022-12-07T04:57:21;101810.53;;;2.41;100.00
71964;BME280;59834;52.124;5.422;2022-12-07T04:59:47;101810.47;;;2.44;100.00
71964;BME280;59834;52.124;5.422;2022-12-07T05:02:14;101810.56;;;2.39;100.00
71964;BME280;59834;52.124;5.422;2022-12-07T05:04:40;101807.16;;;2.35;100.00
71964;BME280;59834;52.124;5.422;2022-12-07T05:07:07;101799.41;;;2.34;100.00
71964;BME280;59834;52.124;5.422;2022-12-07T05:09:34;101800.34;;;2.30;100.00
71964;BME280;59834;52.124;5.422;2022-12-07T05:12:00;101791.75;;;2.29;100.00
71964;BME280;59834;52.124;5.422;2022-12-07T05:14:27;101793.53;;;2.24;100.00
71964;BME280;59834;52.124;5.422;2022-12-07T05:16:54;101794.47;;;2.19;100.00
71964;BME280;59834;52.124;5.422;2022-12-07T05:19:21;101792.78;;;2.15;100.00
71964;BME280;59834;52.124;5.422;2022-12-07T05:21:49;101802.31;;;2.11;100.00
71964;BME280;59834;52.124;5.422;2022-12-07T05:24:16;101795.44;;;2.10;100.00
71964;BME280;59834;52.124;5.422;2022-12-07T05:26:44;101793.78;;;2.06;100.00
71964;BME280;59834;52.124;5.422;2022-12-07T05:29:15;101792.94;;;2.04;100.00
71964;BME280;59834;52.124;5.422;2022-12-07T05:31:43;101793.81;;;2.03;100.00
71964;BME280;59834;52.124;5.422;2022-12-07T05:34:11;101794.69;;;2.02;100.00
71964;BME280;59834;52.124;5.422;2022-12-07T05:36:38;101797.31;;;1.99;100.00
71964;BME280;59834;52.124;5.422;2022-12-07T05:39:06;101795.59;;;1.99;100.00
71964;BME280;59834;52.124;5.422;2022-12-07T05:41:33;101799.94;;;1.96;100.00
71964;BME280;59834;52.124;5.422;2022-12-07T05:44:18;101799.97;;;1.91;100.00
71964;BME280;59834;52.124;5.422;2022-12-07T05:46:45;101796.50;;;1.94;100.00
71964;BME280;59834;52.124;5.422;2022-12-07T05:49:11;101793.91;;;1.94;100.00
71964;BME280;59834;52.124;5.422;2022-12-07T05:51:38;101800.81;;;1.93;100.00
71964;BME280;59834;52.124;5.422;2022-12-07T05:54:05;101798.25;;;1.95;100.00
71964;BME280;59834;52.124;5.422;2022-12-07T05:56:31;101793.91;;;1.94;100.00
71964;BME280;59834;52.124;5.422;2022-12-07T05:58:58;101803.44;;;1.92;100.00
71964;BME280;59834;52.124;5.422;2022-12-07T06:01:43;101808.59;;;1.92;100.00
71964;BME280;59834;52.124;5.422;2022-12-07T06:04:10;101799.13;;;1.91;100.00
71964;BME280;59834;52.124;5.422;2022-12-07T06:06:36;101809.44;;;1.91;100.00
71964;BME280;59834;52.124;5.422;2022-12-07T06:09:03;101812.06;;;1.89;100.00
71964;BME280;59834;52.124;5.422;2022-12-07T06:11:30;101804.34;;;1.86;100.00
71964;BME280;59834;52.124;5.422;2022-12-07T06:14:14;101803.50;;;1.85;100.00
71964;BME280;59834;52.124;5.422;2022-12-07T06:16:41;101801.84;;;1.81;100.00
71964;BME280;59834;52.124;5.422;2022-12-07T06:19:08;101804.41;;;1.80;100.00
71964;BME280;59834;52.124;5.422;2022-12-07T06:21:34;101806.13;;;1.81;100.00
71964;BME280;59834;52.124;5.422;2022-12-07T06:24:01;101807.81;;;1.83;100.00
71964;BME280;59834;52.124;5.422;2022-12-07T06:26:28;101813.78;;;1.87;100.00
71964;BME280;59834;52.124;5.422;2022-12-07T06:28:54;101811.19;;;1.92;100.00
71964;BME280;59834;52.124;5.422;2022-12-07T06:31:21;101808.59;;;1.92;100.00
71964;BME280;59834;52.124;5.422;2022-12-07T06:33:48;101814.63;;;1.91;100.00
71964;BME280;59834;52.124;5.422;2022-12-07T06:36:14;101817.22;;;1.89;100.00
71964;BME280;59834;52.124;5.422;2022-12-07T06:38:41;101806.00;;;1.90;100.00
71964;BME280;59834;52.124;5.422;2022-12-07T06:41:07;101814.66;;;1.87;100.00
71964;BME280;59834;52.124;5.422;2022-12-07T06:43:34;101808.63;;;1.88;100.00
71964;BME280;59834;52.124;5.422;2022-12-07T06:46:00;101812.06;;;1.89;100.00
71964;BME280;59834;52.124;5.422;2022-12-07T06:48:28;101817.22;;;1.89;100.00
71964;BME280;59834;52.124;5.422;2022-12-07T06:50:55;101814.66;;;1.87;100.00
71964;BME280;59834;52.124;5.422;2022-12-07T06:53:22;101808.69;;;1.82;100.00
71964;BME280;59834;52.124;5.422;2022-12-07T06:55:48;101815.63;;;1.77;100.00
71964;BME280;59834;52.124;5.422;2022-12-07T06:58:15;101809.69;;;1.72;100.00
71964;BME280;59834;52.124;5.422;2022-12-07T07:00:42;101807.16;;;1.66;100.00
71964;BME280;59834;52.124;5.422;2022-12-07T07:03:09;101814.09;;;1.62;100.00
71964;BME280;59834;52.124;5.422;2022-12-07T07:05:35;101802.94;;;1.59;100.00
71964;BME280;59834;52.124;5.422;2022-12-07T07:08:02;101810.69;;;1.59;100.00
71964;BME280;59834;52.124;5.422;2022-12-07T07:10:47;101807.25;;;1.58;100.00
71964;BME280;59834;52.124;5.422;2022-12-07T07:13:14;101808.97;;;1.58;100.00
71964;BME280;59834;52.124;5.422;2022-12-07T07:15:41;101803.81;;;1.58;100.00
71964;BME280;59834;52.124;5.422;2022-12-07T07:18:07;101802.09;;;1.57;100.00
71964;BME280;59834;52.124;5.422;2022-12-07T07:20:34;101808.97;;;1.56;100.00
71964;BME280;59834;52.124;5.422;2022-12-07T07:23:01;101809.81;;;1.60;100.00
71964;BME280;59834;52.124;5.422;2022-12-07T07:25:28;101808.97;;;1.56;100.00
71964;BME280;59834;52.124;5.422;2022-12-07T07:27:54;101811.59;;;1.55;100.00
71964;BME280;59834;52.124;5.422;2022-12-07T07:30:21;101815.06;;;1.51;100.00
71964;BME280;59834;52.124;5.422;2022-12-07T07:32:49;101803.06;;;1.47;100.00
71964;BME280;59834;52.124;5.422;2022-12-07T07:35:15;101804.84;;;1.41;100.00
71964;BME280;59834;52.124;5.422;2022-12-07T07:37:42;101804.91;;;1.35;100.00
71964;BME280;59834;52.124;5.422;2022-12-07T07:40:26;101804.03;;;1.36;100.00
71964;BME280;59834;52.124;5.422;2022-12-07T07:43:01;101813.47;;;1.37;100.00
71964;BME280;59834;52.124;5.422;2022-12-07T07:45:27;101813.53;;;1.34;100.00
71964;BME280;59834;52.124;5.422;2022-12-07T07:47:54;101815.25;;;1.32;100.00
71964;BME280;59834;52.124;5.422;2022-12-07T07:50:21;101815.25;;;1.32;100.00
71964;BME280;59834;52.124;5.422;2022-12-07T07:52:48;101809.25;;;1.32;100.00
71964;BME280;59834;52.124;5.422;2022-12-07T07:55:15;101808.38;;;1.34;100.00
71964;BME280;59834;52.124;5.422;2022-12-07T07:57:42;101816.03;;;1.37;100.00
71964;BME280;59834;52.124;5.422;2022-12-07T08:00:16;101813.44;;;1.42;100.00
71964;BME280;59834;52.124;5.422;2022-12-07T08:02:43;101813.41;;;1.44;100.00
71964;BME280;59834;52.124;5.422;2022-12-07T08:05:10;101819.38;;;1.49;100.00
71964;BME280;59834;52.124;5.422;2022-12-07T08:07:38;101820.19;;;1.54;100.00
71964;BME280;59834;52.124;5.422;2022-12-07T08:10:05;101821.00;;;1.57;100.00
71964;BME280;59834;52.124;5.422;2022-12-07T08:12:36;101821.00;;;1.59;100.00
71964;BME280;59834;52.124;5.422;2022-12-07T08:15:03;101823.59;;;1.59;100.00
71964;BME280;59834;52.124;5.422;2022-12-07T08:17:30;101824.41;;;1.62;100.00
71964;BME280;59834;52.124;5.422;2022-12-07T08:19:56;101830.34;;;1.69;100.00
71964;BME280;59834;52.124;5.422;2022-12-07T08:22:23;101832.00;;;1.76;100.00
71964;BME280;59834;52.124;5.422;2022-12-07T08:24:49;101837.03;;;1.88;100.00
71964;BME280;59834;52.124;5.422;2022-12-07T08:27:16;101842.94;;;1.98;100.00
71964;BME280;59834;52.124;5.422;2022-12-07T08:29:42;101835.09;;;2.06;100.00
71964;BME280;59834;52.124;5.422;2022-12-07T08:32:09;101833.25;;;2.14;100.00
71964;BME280;59834;52.124;5.422;2022-12-07T08:34:35;101826.31;;;2.19;100.00
71964;BME280;59834;52.124;5.422;2022-12-07T08:37:03;101815.91;;;2.25;100.00
71964;BME280;59834;52.124;5.422;2022-12-07T08:39:29;101820.94;;;2.34;100.00
71964;BME280;59834;52.124;5.422;2022-12-07T08:41:57;101827.75;;;2.42;100.00
71964;BME280;59834;52.124;5.422;2022-12-07T08:44:24;101826.78;;;2.49;100.00
71964;BME280;59834;52.124;5.422;2022-12-07T08:46:54;101827.56;;;2.54;100.00
71964;BME280;59834;52.124;5.422;2022-12-07T08:49:27;101821.47;;;2.59;100.00
71964;BME280;59834;52.124;5.422;2022-12-07T08:51:55;101817.94;;;2.64;100.00
71964;BME280;59834;52.124;5.422;2022-12-07T08:54:21;101812.69;;;2.68;100.00
71964;BME280;59834;52.124;5.422;2022-12-07T08:56:49;101817.00;;;2.69;100.00
71964;BME280;59834;52.124;5.422;2022-12-07T08:59:24;101824.78;;;2.68;100.00
71964;BME280;59834;52.124;5.422;2022-12-07T09:01:51;101814.44;;;2.68;100.00
71964;BME280;59834;52.124;5.422;2022-12-07T09:04:18;101811.84;;;2.69;100.00
71964;BME280;59834;52.124;5.422;2022-12-07T09:06:45;101819.56;;;2.71;100.00
71964;BME280;59834;52.124;5.422;2022-12-07T09:09:13;101823.00;;;2.71;100.00
71964;BME280;59834;52.124;5.422;2022-12-07T09:11:40;101820.41;;;2.71;100.00
71964;BME280;59834;52.124;5.422;2022-12-07T09:14:07;101818.69;;;2.72;100.00
71964;BME280;59834;52.124;5.422;2022-12-07T09:16:33;101815.19;;;2.74;100.00
71964;BME280;59834;52.124;5.422;2022-12-07T09:19:00;101813.38;;;2.82;100.00
71964;BME280;59834;52.124;5.422;2022-12-07T09:21:27;101811.41;;;2.97;100.00
71964;BME280;59834;52.124;5.422;2022-12-07T09:23:53;101819.03;;;3.04;100.00
71964;BME280;59834;52.124;5.422;2022-12-07T09:26:20;101827.44;;;3.17;100.00
71964;BME280;59834;52.124;5.422;2022-12-07T09:28:46;101824.56;;;3.34;100.00
71964;BME280;59834;52.124;5.422;2022-12-07T09:31:13;101828.84;;;3.35;100.00
71964;BME280;59834;52.124;5.422;2022-12-07T09:33:57;101835.72;;;3.38;100.00
71964;BME280;59834;52.124;5.422;2022-12-07T09:36:24;101827.88;;;3.41;100.00
71964;BME280;59834;52.124;5.422;2022-12-07T09:38:51;101823.56;;;3.41;100.00
71964;BME280;59834;52.124;5.422;2022-12-07T09:41:18;101823.59;;;3.40;100.00
71964;BME280;59834;52.124;5.422;2022-12-07T09:43:45;101828.69;;;3.44;100.00
71964;BME280;59834;52.124;5.422;2022-12-07T09:46:15;101819.13;;;3.48;100.00
71964;BME280;59834;52.124;5.422;2022-12-07T09:48:43;101820.78;;;3.52;100.00
71964;BME280;59834;52.124;5.422;2022-12-07T09:51:22;101817.22;;;3.58;100.00
71964;BME280;59834;52.124;5.422;2022-12-07T09:53:56;101818.06;;;3.60;100.00
71964;BME280;59834;52.124;5.422;2022-12-07T09:56:24;101822.34;;;3.61;100.00
71964;BME280;59834;52.124;5.422;2022-12-07T09:58:59;101813.75;;;3.60;100.00
71964;BME280;59834;52.124;5.422;2022-12-07T10:01:30;101808.56;;;3.60;100.00
71964;BME280;59834;52.124;5.422;2022-12-07T10:04:12;101810.31;;;3.58;100.00
71964;BME280;59834;52.124;5.422;2022-12-07T10:06:41;101803.38;;;3.60;100.00
71964;BME280;59834;52.124;5.422;2022-12-07T10:09:12;101810.25;;;3.61;100.00
71964;BME280;59834;52.124;5.422;2022-12-07T10:12:02;101815.41;;;3.63;100.00
71964;BME280;59834;52.124;5.422;2022-12-07T10:14:32;101804.22;;;3.62;100.00
71964;BME280;59834;52.124;5.422;2022-12-07T10:20:21;101791.00;;;3.74;100.00
71964;BME280;59834;52.124;5.422;2022-12-07T10:23:02;101795.91;;;3.90;100.00
71964;BME280;59834;52.124;5.422;2022-12-07T10:25:32;101793.69;;;4.13;100.00
71964;BME280;59834;52.124;5.422;2022-12-07T10:28:10;101778.53;;;4.34;100.00
71964;BME280;59834;52.124;5.422;2022-12-07T10:30:57;101782.13;;;4.28;100.00
71964;BME280;59834;52.124;5.422;2022-12-07T10:36:27;101776.63;;;4.03;100.00
71964;BME280;59834;52.124;5.422;2022-12-07T10:39:03;101787.19;;;3.94;100.00
71964;BME280;59834;52.124;5.422;2022-12-07T10:41:30;101782.06;;;3.91;100.00
71964;BME280;59834;52.124;5.422;2022-12-07T10:43:57;101775.72;;;4.04;100.00
71964;BME280;59834;52.124;5.422;2022-12-07T10:54:54;101765.50;;;4.37;100.00
71964;BME280;59834;52.124;5.422;2022-12-07T11:00:19;101758.00;;;4.26;100.00
71964;BME280;59834;52.124;5.422;2022-12-07T11:03:03;101756.25;;;4.27;100.00
71964;BME280;59834;52.124;5.422;2022-12-07T11:11:13;101755.19;;;4.71;99.90
71964;BME280;59834;52.124;5.422;2022-12-07T11:22:06;101749.09;;;4.73;98.39
71964;BME280;59834;52.124;5.422;2022-12-07T11:25:14;101745.19;;;4.56;98.53
71964;BME280;59834;52.124;5.422;2022-12-07T11:30:34;101741.34;;;4.35;98.37
71964;BME280;59834;52.124;5.422;2022-12-07T11:33:12;101731.19;;;4.25;98.85
71964;BME280;59834;52.124;5.422;2022-12-07T11:38:46;101734.88;;;4.15;98.84
71964;BME280;59834;52.124;5.422;2022-12-07T11:41:25;101733.19;;;4.14;98.87
71964;BME280;59834;52.124;5.422;2022-12-07T11:46:43;101718.94;;;4.34;98.78
71964;BME280;59834;52.124;5.422;2022-12-07T11:49:39;101716.84;;;4.48;98.38
71964;BME280;59834;52.124;5.422;2022-12-07T11:52:13;101710.63;;;4.55;98.40
71964;BME280;59834;52.124;5.422;2022-12-07T11:54:45;101707.81;;;4.64;98.44
71964;BME280;59834;52.124;5.422;2022-12-07T11:57:18;101708.56;;;4.69;97.94
71964;BME280;59834;52.124;5.422;2022-12-07T11:59:50;101716.16;;;4.76;97.55
71964;BME280;59834;52.124;5.422;2022-12-07T12:02:28;101710.91;;;4.79;97.67
71964;BME280;59834;52.124;5.422;2022-12-07T12:05:21;101699.66;;;4.80;96.93
71964;BME280;59834;52.124;5.422;2022-12-07T12:07:55;101700.47;;;4.82;97.10
71964;BME280;59834;52.124;5.422;2022-12-07T12:11:02;101686.44;;;4.89;96.67
71964;BME280;59834;52.124;5.422;2022-12-07T12:14:53;101682.88;;;4.93;96.59
71964;BME280;59834;52.124;5.422;2022-12-07T12:22:44;101682.63;;;5.02;94.90
71964;BME280;59834;52.124;5.422;2022-12-07T12:25:21;101685.03;;;5.10;94.70
71964;BME280;59834;52.124;5.422;2022-12-07T12:27:49;101685.56;;;5.21;93.72
71964;BME280;59834;52.124;5.422;2022-12-07T12:33:22;101677.47;;;5.32;92.27
71964;BME280;59834;52.124;5.422;2022-12-07T12:41:54;101655.03;;;5.60;91.81
71964;BME280;59834;52.124;5.422;2022-12-07T12:46:55;101656.91;;;5.83;90.18
71964;BME280;59834;52.124;5.422;2022-12-07T12:51:57;101653.97;;;5.96;89.33
71964;BME280;59834;52.124;5.422;2022-12-07T12:54:32;101651.94;;;6.05;88.64
71964;BME280;59834;52.124;5.422;2022-12-07T12:57:10;101643.41;;;6.02;88.60
71964;BME280;59834;52.124;5.422;2022-12-07T13:02:26;101654.81;;;5.66;89.12
71964;BME280;59834;52.124;5.422;2022-12-07T13:31:40;101621.72;;;4.17;94.10
71964;BME280;59834;52.124;5.422;2022-12-07T13:34:32;101616.59;;;4.14;94.92
71964;BME280;59834;52.124;5.422;2022-12-07T13:37:01;101616.41;;;4.22;94.48
71964;BME280;59834;52.124;5.422;2022-12-07T13:39:28;101613.63;;;4.30;94.80
71964;BME280;59834;52.124;5.422;2022-12-07T13:41:57;101611.13;;;4.27;94.87
71964;BME280;59834;52.124;5.422;2022-12-07T13:50:27;101600.91;;;4.20;96.00
71964;BME280;59834;52.124;5.422;2022-12-07T13:52:56;101600.84;;;4.23;96.00
71964;BME280;59834;52.124;5.422;2022-12-07T13:55:23;101597.34;;;4.24;96.49
71964;BME280;59834;52.124;5.422;2022-12-07T13:57:51;101594.59;;;4.31;96.53
71964;BME280;59834;52.124;5.422;2022-12-07T14:00:20;101593.69;;;4.33;96.91
71964;BME280;59834;52.124;5.422;2022-12-07T14:02:59;101594.47;;;4.35;96.99
71964;BME280;59834;52.124;5.422;2022-12-07T14:05:29;101599.56;;;4.40;97.37
71964;BME280;59834;52.124;5.422;2022-12-07T14:08:01;101589.06;;;4.44;97.00
71964;BME280;59834;52.124;5.422;2022-12-07T14:13:28;101590.56;;;4.53;97.16
71964;BME280;59834;52.124;5.422;2022-12-07T14:15:51;101587.91;;;4.56;96.85
71964;BME280;59834;52.124;5.422;2022-12-07T14:18:29;101584.34;;;4.59;97.57
71964;BME280;59834;52.124;5.422;2022-12-07T14:21:15;101584.34;;;4.60;96.87
71964;BME280;59834;52.124;5.422;2022-12-07T14:23:43;101575.66;;;4.61;96.79
71964;BME280;59834;52.124;5.422;2022-12-07T14:26:14;101575.66;;;4.61;97.26
71964;BME280;59834;52.124;5.422;2022-12-07T14:28:42;101572.22;;;4.61;97.77
71964;BME280;59834;52.124;5.422;2022-12-07T14:31:17;101565.34;;;4.60;97.71
71964;BME280;59834;52.124;5.422;2022-12-07T14:33:59;101571.38;;;4.60;97.75
71964;BME280;59834;52.124;5.422;2022-12-07T14:36:30;101563.66;;;4.57;98.45
71964;BME280;59834;52.124;5.422;2022-12-07T14:39:04;101562.84;;;4.55;97.97
71964;BME280;59834;52.124;5.422;2022-12-07T14:41:39;101569.84;;;4.53;97.98
71964;BME280;59834;52.124;5.422;2022-12-07T14:44:22;101566.50;;;4.48;98.34
71964;BME280;59834;52.124;5.422;2022-12-07T14:47:00;101554.50;;;4.44;99.11
71964;BME280;59834;52.124;5.422;2022-12-07T14:49:51;101554.59;;;4.41;98.74
71964;BME280;59834;52.124;5.422;2022-12-07T14:52:31;101552.16;;;4.35;98.22
71964;BME280;59834;52.124;5.422;2022-12-07T14:55:31;101553.09;;;4.32;98.18
71964;BME280;59834;52.124;5.422;2022-12-07T14:58:16;101554.91;;;4.29;97.90
71964;BME280;59834;52.124;5.422;2022-12-07T15:00:46;101558.31;;;4.31;97.84
71964;BME280;59834;52.124;5.422;2022-12-07T15:03:13;101560.09;;;4.29;97.29
71964;BME280;59834;52.124;5.422;2022-12-07T15:05:41;101560.09;;;4.29;96.84
71964;BME280;59834;52.124;5.422;2022-12-07T15:08:14;101554.03;;;4.30;96.56
71964;BME280;59834;52.124;5.422;2022-12-07T15:10:40;101549.72;;;4.29;97.05
71964;BME280;59834;52.124;5.422;2022-12-07T15:13:08;101560.09;;;4.29;96.69
71964;BME280;59834;52.124;5.422;2022-12-07T15:15:56;101567.00;;;4.28;96.54
71964;BME280;59834;52.124;5.422;2022-12-07T15:18:23;101559.28;;;4.27;96.90
71964;BME280;59834;52.124;5.422;2022-12-07T15:20:50;101562.03;;;4.20;96.18
71964;BME280;59834;52.124;5.422;2022-12-07T15:23:18;101563.00;;;4.16;96.26
71964;BME280;59834;52.124;5.422;2022-12-07T15:25:47;101558.69;;;4.15;96.44
71964;BME280;59834;52.124;5.422;2022-12-07T15:28:14;101557.09;;;4.11;96.55
71964;BME280;59834;52.124;5.422;2022-12-07T15:30:41;101550.34;;;4.04;96.51
71964;BME280;59834;52.124;5.422;2022-12-07T15:33:13;101558.13;;;4.04;96.79
71964;BME280;59834;52.124;5.422;2022-12-07T15:35:43;101551.31;;;4.00;96.43
71964;BME280;59834;52.124;5.422;2022-12-07T15:38:12;101541.94;;;3.96;96.47
71964;BME280;59834;52.124;5.422;2022-12-07T15:40:39;101538.44;;;3.97;96.79
71964;BME280;59834;52.124;5.422;2022-12-07T15:43:08;101541.94;;;3.96;97.48
71964;BME280;59834;52.124;5.422;2022-12-07T15:45:56;101539.38;;;3.94;97.49
71964;BME280;59834;52.124;5.422;2022-12-07T15:48:23;101536.84;;;3.91;97.46
71964;BME280;59834;52.124;5.422;2022-12-07T15:51:06;101535.19;;;3.89;98.43
71964;BME280;59834;52.124;5.422;2022-12-07T15:53:49;101524.13;;;3.82;98.48
71964;BME280;59834;52.124;5.422;2022-12-07T15:56:16;101527.66;;;3.80;98.65
71964;BME280;59834;52.124;5.422;2022-12-07T15:58:43;101516.53;;;3.76;98.48
71964;BME280;59834;52.124;5.422;2022-12-07T16:01:16;101521.78;;;3.73;98.30
71964;BME280;59834;52.124;5.422;2022-12-07T16:03:44;101522.72;;;3.69;98.31
71964;BME280;59834;52.124;5.422;2022-12-07T16:06:22;101523.72;;;3.63;98.89
71964;BME280;59834;52.124;5.422;2022-12-07T16:08:48;101521.09;;;3.65;99.39
71964;BME280;59834;52.124;5.422;2022-12-07T16:11:15;101516.75;;;3.65;99.01
71964;BME280;59834;52.124;5.422;2022-12-07T16:13:42;101519.31;;;3.67;99.71
71964;BME280;59834;52.124;5.422;2022-12-07T16:16:17;101517.63;;;3.66;98.61
71964;BME280;59834;52.124;5.422;2022-12-07T16:19:10;101514.38;;;3.58;99.04
71964;BME280;59834;52.124;5.422;2022-12-07T16:21:41;101507.56;;;3.53;99.54
71964;BME280;59834;52.124;5.422;2022-12-07T16:24:10;101498.97;;;3.51;99.97
71964;BME280;59834;52.124;5.422;2022-12-07T16:26:39;101495.66;;;3.46;99.82
71964;BME280;59834;52.124;5.422;2022-12-07T16:29:13;101502.56;;;3.46;100.00
71964;BME280;59834;52.124;5.422;2022-12-07T16:31:41;101501.81;;;3.41;100.00
71964;BME280;59834;52.124;5.422;2022-12-07T16:34:08;101491.53;;;3.38;100.00
71964;BME280;59834;52.124;5.422;2022-12-07T16:36:36;101493.25;;;3.39;100.00